createdAt,value
2023-01-21T00:11:52.792Z,222
2023-01-21T00:40:38.747Z,198
2023-01-21T01:09:21.163Z,178
2023-01-21T01:38:13.931Z,168
2023-01-21T02:07:10.407Z,149
2023-01-21T02:35:57.292Z,135
2023-01-21T03:04:46.849Z,121
2023-01-21T03:33:31.023Z,110
2023-01-21T04:02:06.592Z,103
2023-01-21T04:30:50.098Z,93
2023-01-21T04:59:33.297Z,87
2023-01-21T05:28:14.214Z,77
2023-01-21T05:56:59.305Z,67
2023-01-21T06:25:49.097Z,62
2023-01-21T06:54:42.264Z,55
2023-01-21T07:23:26.514Z,51
2023-01-21T07:52:02.795Z,46
2023-01-21T08:20:39.917Z,40
2023-01-21T08:49:11.279Z,37
2023-01-21T09:17:44.069Z,33
2023-01-21T09:46:21.781Z,30
2023-01-21T10:14:55.491Z,30
2023-01-21T10:42:42.718Z,28
2023-01-21T11:11:26.579Z,58
2023-01-21T11:39:53.396Z,56
2023-01-21T12:08:32.130Z,46
2023-01-21T12:37:09.031Z,42
2023-01-21T13:05:44.860Z,37
2023-01-21T13:34:12.858Z,33
2023-01-21T14:02:50.461Z,30
2023-01-21T14:31:11.959Z,28
2023-01-21T14:59:42.455Z,26
2023-01-21T15:28:18.277Z,24
2023-01-21T15:56:46.800Z,23
2023-01-21T16:25:14.010Z,20
2023-01-21T16:53:43.135Z,21
2023-01-21T17:22:20.024Z,15
2023-01-21T17:50:48.902Z,14
2023-01-21T18:19:32.799Z,14
2023-01-21T18:48:26.828Z,13
2023-01-21T19:17:13.085Z,14
2023-01-21T19:45:59.669Z,14
2023-01-21T20:14:44.749Z,12
2023-01-21T20:43:42.465Z,12
2023-01-21T21:12:35.179Z,11
2023-01-21T21:41:20.032Z,11
2023-01-21T22:10:08.215Z,10
2023-01-21T22:38:57.073Z,10
2023-01-21T23:07:42.204Z,9
2023-01-21T23:36:24.981Z,8
